sensor_id;sensor_type;location;lat;lon;timestamp;pressure;altitude;pressure_sealevel;temperature;humidity
18784;BME280;9520;50.954;6.968;2022-09-14T00:00:19;100155.50;;;26.96;55.33
18784;BME280;9520;50.954;6.968;2022-09-14T00:00:41;100160.91;;;26.96;55.50
18784;BME280;9520;50.954;6.968;2022-09-14T00:01:06;100155.50;;;26.96;55.45
18784;BME280;9520;50.954;6.968;2022-09-14T00:01:45;100147.38;;;26.96;55.08
18784;BME280;9520;50.954;6.968;2022-09-14T00:02:09;100144.69;;;26.96;55.58
18784;BME280;9520;50.954;6.968;2022-09-14T00:02:31;100146.66;;;26.94;54.86
18784;BME280;9520;50.954;6.968;2022-09-14T00:02:53;100142.97;;;26.95;55.04
18784;BME280;9520;50.954;6.968;2022-09-14T00:03:16;100155.50;;;26.96;54.72
18784;BME280;9520;50.954;6.968;2022-09-14T00:03:38;100150.22;;;26.94;54.79
18784;BME280;9520;50.954;6.968;2022-09-14T00:04:04;100145.66;;;26.95;55.37
18784;BME280;9520;50.954;6.968;2022-09-14T00:04:26;100150.22;;;26.94;55.18
18784;BME280;9520;50.954;6.968;2022-09-14T00:04:48;100148.66;;;26.92;54.88
18784;BME280;9520;50.954;6.968;2022-09-14T00:05:11;100146.81;;;26.92;54.80
18784;BME280;9520;50.954;6.968;2022-09-14T00:05:34;100149.34;;;26.94;54.96
18784;BME280;9520;50.954;6.968;2022-09-14T00:06:02;100144.97;;;26.93;54.93
18784;BME280;9520;50.954;6.968;2022-09-14T00:06:24;100146.09;;;26.90;55.11
18784;BME280;9520;50.954;6.968;2022-09-14T00:06:47;100154.06;;;26.92;55.68
18784;BME280;9520;50.954;6.968;2022-09-14T00:07:09;100142.38;;;26.91;55.47
18784;BME280;9520;50.954;6.968;2022-09-14T00:07:31;100142.38;;;26.91;54.91
18784;BME280;9520;50.954;6.968;2022-09-14T00:07:52;100143.94;;;26.94;54.88
18784;BME280;9520;50.954;6.968;2022-09-14T00:08:15;100135.81;;;26.94;55.01
18784;BME280;9520;50.954;6.968;2022-09-14T00:08:37;100143.94;;;26.94;55.04
18784;BME280;9520;50.954;6.968;2022-09-14T00:09:00;100135.69;;;26.95;54.55
18784;BME280;9520;50.954;6.968;2022-09-14T00:09:23;100140.97;;;26.97;55.10
18784;BME280;9520;50.954;6.968;2022-09-14T00:09:46;100137.28;;;26.98;54.90
18784;BME280;9520;50.954;6.968;2022-09-14T00:10:09;100135.56;;;26.97;54.85
18784;BME280;9520;50.954;6.968;2022-09-14T00:10:31;100133.72;;;26.97;54.86
18784;BME280;9520;50.954;6.968;2022-09-14T00:10:53;100131.88;;;26.98;54.79
18784;BME280;9520;50.954;6.968;2022-09-14T00:11:14;100132.84;;;26.97;54.33
18784;BME280;9520;50.954;6.968;2022-09-14T00:11:37;100134.69;;;26.96;54.75
18784;BME280;9520;50.954;6.968;2022-09-14T00:12:00;100134.56;;;26.98;54.86
18784;BME280;9520;50.954;6.968;2022-09-14T00:12:22;100131.00;;;26.97;54.39
18784;BME280;9520;50.954;6.968;2022-09-14T00:12:45;100131.00;;;26.97;54.53
18784;BME280;9520;50.954;6.968;2022-09-14T00:13:07;100138.97;;;26.99;54.51
18784;BME280;9520;50.954;6.968;2022-09-14T00:13:30;100137.28;;;26.98;54.59
18784;BME280;9520;50.954;6.968;2022-09-14T00:13:52;100130.28;;;26.95;54.79
18784;BME280;9520;50.954;6.968;2022-09-14T00:14:15;100137.41;;;26.96;54.65
18784;BME280;9520;50.954;6.968;2022-09-14T00:14:37;100131.44;;;26.93;55.02
18784;BME280;9520;50.954;6.968;2022-09-14T00:14:59;100130.72;;;26.91;55.21
18784;BME280;9520;50.954;6.968;2022-09-14T00:15:21;100136.00;;;26.92;55.08
18784;BME280;9520;50.954;6.968;2022-09-14T00:15:43;100132.41;;;26.92;54.77
18784;BME280;9520;50.954;6.968;2022-09-14T00:16:07;100135.81;;;26.94;55.03
18784;BME280;9520;50.954;6.968;2022-09-14T00:16:34;100137.84;;;26.92;55.50
18784;BME280;9520;50.954;6.968;2022-09-14T00:16:57;100136.13;;;26.91;55.19
18784;BME280;9520;50.954;6.968;2022-09-14T00:17:18;100141.81;;;26.88;55.57
18784;BME280;9520;50.954;6.968;2022-09-14T00:17:41;100138.34;;;26.86;55.92
18784;BME280;9520;50.954;6.968;2022-09-14T00:18:05;100132.94;;;26.86;55.72
18784;BME280;9520;50.954;6.968;2022-09-14T00:18:27;100131.22;;;26.85;55.82
18784;BME280;9520;50.954;6.968;2022-09-14T00:18:50;100122.25;;;26.84;55.81
18784;BME280;9520;50.954;6.968;2022-09-14T00:19:16;100123.09;;;26.85;55.42
18784;BME280;9520;50.954;6.968;2022-09-14T00:19:39;100128.81;;;26.82;55.80
18784;BME280;9520;50.954;6.968;2022-09-14T00:20:01;100122.53;;;26.81;55.41
18784;BME280;9520;50.954;6.968;2022-09-14T00:20:23;100119.69;;;26.83;55.74
18784;BME280;9520;50.954;6.968;2022-09-14T00:20:44;100115.16;;;26.83;55.73
18784;BME280;9520;50.954;6.968;2022-09-14T00:21:08;100117.84;;;26.83;55.43
18784;BME280;9520;50.954;6.968;2022-09-14T00:21:31;100114.13;;;26.84;55.28
18784;BME280;9520;50.954;6.968;2022-09-14T00:21:56;100114.28;;;26.83;55.29
18784;BME280;9520;50.954;6.968;2022-09-14T00:22:18;100106.19;;;26.83;55.14
18784;BME280;9520;50.954;6.968;2022-09-14T00:22:41;100102.22;;;26.87;55.12
18784;BME280;9520;50.954;6.968;2022-09-14T00:23:03;100097.88;;;26.84;55.11
18784;BME280;9520;50.954;6.968;2022-09-14T00:23:25;100103.47;;;26.83;54.79
18784;BME280;9520;50.954;6.968;2022-09-14T00:23:47;100101.44;;;26.85;55.15
18784;BME280;9520;50.954;6.968;2022-09-14T00:24:33;100106.63;;;26.88;55.15
18784;BME280;9520;50.954;6.968;2022-09-14T00:24:56;100099.50;;;26.87;54.78
18784;BME280;9520;50.954;6.968;2022-09-14T00:25:17;100098.91;;;26.83;55.33
18784;BME280;9520;50.954;6.968;2022-09-14T00:25:39;100074.53;;;26.64;55.51
18784;BME280;9520;50.954;6.968;2022-09-14T00:26:02;100088.22;;;26.72;55.88
18784;BME280;9520;50.954;6.968;2022-09-14T00:26:26;100099.16;;;26.80;55.88
18784;BME280;9520;50.954;6.968;2022-09-14T00:26:52;100100.47;;;26.76;55.82
18784;BME280;9520;50.954;6.968;2022-09-14T00:27:15;100107.47;;;26.79;56.04
18784;BME280;9520;50.954;6.968;2022-09-14T00:27:37;100111.00;;;26.79;56.11
18784;BME280;9520;50.954;6.968;2022-09-14T00:27:58;100103.88;;;26.78;55.62
18784;BME280;9520;50.954;6.968;2022-09-14T00:28:21;100111.28;;;26.76;55.88
18784;BME280;9520;50.954;6.968;2022-09-14T00:28:45;100107.03;;;26.74;55.45
18784;BME280;9520;50.954;6.968;2022-09-14T00:29:07;100093.31;;;26.65;55.76
18784;BME280;9520;50.954;6.968;2022-09-14T00:29:29;100104.88;;;26.77;55.86
18784;BME280;9520;50.954;6.968;2022-09-14T00:29:53;100082.50;;;26.65;55.96
18784;BME280;9520;50.954;6.968;2022-09-14T00:30:15;100105.00;;;26.76;55.86
18784;BME280;9520;50.954;6.968;2022-09-14T00:30:40;100108.44;;;26.78;55.44
18784;BME280;9520;50.954;6.968;2022-09-14T00:31:02;100107.59;;;26.77;55.98
18784;BME280;9520;50.954;6.968;2022-09-14T00:31:24;100113.84;;;26.78;56.35
18784;BME280;9520;50.954;6.968;2022-09-14T00:31:47;100103.28;;;26.75;56.07
18784;BME280;9520;50.954;6.968;2022-09-14T00:32:09;100108.44;;;26.78;56.24
18784;BME280;9520;50.954;6.968;2022-09-14T00:32:30;100100.31;;;26.78;55.86
18784;BME280;9520;50.954;6.968;2022-09-14T00:32:53;100104.16;;;26.75;55.89
18784;BME280;9520;50.954;6.968;2022-09-14T00:33:16;100101.19;;;26.78;56.18
18784;BME280;9520;50.954;6.968;2022-09-14T00:33:40;100104.75;;;26.79;55.60
18784;BME280;9520;50.954;6.968;2022-09-14T00:34:03;100097.75;;;26.76;56.00
18784;BME280;9520;50.954;6.968;2022-09-14T00:34:26;100097.19;;;26.73;55.98
18784;BME280;9520;50.954;6.968;2022-09-14T00:34:49;100108.56;;;26.76;56.13
18784;BME280;9520;50.954;6.968;2022-09-14T00:35:10;100106.84;;;26.75;56.25
18784;BME280;9520;50.954;6.968;2022-09-14T00:35:34;100107.72;;;26.76;56.37
18784;BME280;9520;50.954;6.968;2022-09-14T00:36:03;100097.19;;;26.73;56.25
18784;BME280;9520;50.954;6.968;2022-09-14T00:36:26;100104.88;;;26.77;56.20
18784;BME280;9520;50.954;6.968;2022-09-14T00:36:50;100101.19;;;26.78;55.83
18784;BME280;9520;50.954;6.968;2022-09-14T00:37:12;100101.88;;;26.80;56.14
18784;BME280;9520;50.954;6.968;2022-09-14T00:37:34;100083.66;;;26.73;55.53
18784;BME280;9520;50.954;6.968;2022-09-14T00:37:56;100099.03;;;26.82;55.39
18784;BME280;9520;50.954;6.968;2022-09-14T00:38:18;100100.47;;;26.76;55.81
18784;BME280;9520;50.954;6.968;2022-09-14T00:38:40;100099.34;;;26.79;55.31
18784;BME280;9520;50.954;6.968;2022-09-14T00:39:03;100099.47;;;26.77;55.67
18784;BME280;9520;50.954;6.968;2022-09-14T00:39:25;100102.03;;;26.79;55.38
18784;BME280;9520;50.954;6.968;2022-09-14T00:39:49;100098.59;;;26.77;55.02
18784;BME280;9520;50.954;6.968;2022-09-14T00:40:11;100094.91;;;26.78;55.18
18784;BME280;9520;50.954;6.968;2022-09-14T00:40:33;100094.75;;;26.79;55.28
18784;BME280;9520;50.954;6.968;2022-09-14T00:40:57;100097.44;;;26.79;55.04
18784;BME280;9520;50.954;6.968;2022-09-14T00:41:21;100099.59;;;26.76;55.19
18784;BME280;9520;50.954;6.968;2022-09-14T00:41:47;100102.31;;;26.76;55.75
18784;BME280;9520;50.954;6.968;2022-09-14T00:42:15;100096.47;;;26.71;55.53
18784;BME280;9520;50.954;6.968;2022-09-14T00:42:39;100099.31;;;26.69;55.48
18784;BME280;9520;50.954;6.968;2022-09-14T00:43:02;100102.16;;;26.68;55.61
18784;BME280;9520;50.954;6.968;2022-09-14T00:43:24;100105.72;;;26.68;55.51
18784;BME280;9520;50.954;6.968;2022-09-14T00:43:54;100098.47;;;26.69;55.40
18784;BME280;9520;50.954;6.968;2022-09-14T00:45:19;100097.59;;;26.68;55.46
18784;BME280;9520;50.954;6.968;2022-09-14T00:45:41;100101.31;;;26.67;55.81
18784;BME280;9520;50.954;6.968;2022-09-14T00:46:03;100107.69;;;26.66;55.92
18784;BME280;9520;50.954;6.968;2022-09-14T00:46:27;100105.84;;;26.67;55.73
18784;BME280;9520;50.954;6.968;2022-09-14T00:46:52;100098.59;;;26.67;55.58
18784;BME280;9520;50.954;6.968;2022-09-14T00:47:15;100109.28;;;26.69;55.53
18784;BME280;9520;50.954;6.968;2022-09-14T00:47:39;100088.88;;;26.64;55.46
18784;BME280;9520;50.954;6.968;2022-09-14T00:48:01;100100.44;;;26.67;55.44
18784;BME280;9520;50.954;6.968;2022-09-14T00:48:24;100091.59;;;26.64;55.92
18784;BME280;9520;50.954;6.968;2022-09-14T00:48:46;100099.88;;;26.63;55.74
18784;BME280;9520;50.954;6.968;2022-09-14T00:49:10;100088.47;;;26.59;55.81
18784;BME280;9520;50.954;6.968;2022-09-14T00:49:35;100088.31;;;26.51;56.07
18784;BME280;9520;50.954;6.968;2022-09-14T00:50:00;100095.59;;;26.60;55.90
18784;BME280;9520;50.954;6.968;2022-09-14T00:50:24;100087.34;;;26.62;56.06
18784;BME280;9520;50.954;6.968;2022-09-14T00:50:46;100087.22;;;26.63;55.88
18784;BME280;9520;50.954;6.968;2022-09-14T00:51:08;100084.50;;;26.63;56.11
18784;BME280;9520;50.954;6.968;2022-09-14T00:51:31;100077.38;;;26.62;55.78
18784;BME280;9520;50.954;6.968;2022-09-14T00:51:58;100083.91;;;26.70;55.41
18784;BME280;9520;50.954;6.968;2022-09-14T00:52:25;100078.78;;;26.67;55.74
18784;BME280;9520;50.954;6.968;2022-09-14T00:52:49;100085.63;;;26.71;55.25
18784;BME280;9520;50.954;6.968;2022-09-14T00:53:12;100081.38;;;26.68;55.61
18784;BME280;9520;50.954;6.968;2022-09-14T00:53:33;100077.69;;;26.69;55.52
18784;BME280;9520;50.954;6.968;2022-09-14T00:53:55;100084.63;;;26.72;55.44
18784;BME280;9520;50.954;6.968;2022-09-14T00:54:17;100083.91;;;26.70;55.90
18784;BME280;9520;50.954;6.968;2022-09-14T00:54:40;100073.69;;;26.63;55.73
18784;BME280;9520;50.954;6.968;2022-09-14T00:55:06;100091.34;;;26.68;55.98
18784;BME280;9520;50.954;6.968;2022-09-14T00:55:29;100072.94;;;26.61;55.94
18784;BME280;9520;50.954;6.968;2022-09-14T00:55:51;100086.34;;;26.73;55.64
18784;BME280;9520;50.954;6.968;2022-09-14T00:56:15;100091.03;;;26.71;55.46
18784;BME280;9520;50.954;6.968;2022-09-14T00:56:38;100077.94;;;26.66;55.50
18784;BME280;9520;50.954;6.968;2022-09-14T00:57:01;100090.47;;;26.67;55.94
18784;BME280;9520;50.954;6.968;2022-09-14T00:57:27;100082.06;;;26.60;55.81
18784;BME280;9520;50.954;6.968;2022-09-14T00:57:52;100090.03;;;26.62;55.74
18784;BME280;9520;50.954;6.968;2022-09-14T00:58:15;100086.19;;;26.64;55.59
18784;BME280;9520;50.954;6.968;2022-09-14T00:58:37;100090.78;;;26.64;55.96
18784;BME280;9520;50.954;6.968;2022-09-14T00:59:03;100089.91;;;26.63;55.92
18784;BME280;9520;50.954;6.968;2022-09-14T00:59:29;100086.59;;;26.60;55.40
18784;BME280;9520;50.954;6.968;2022-09-14T00:59:53;100095.03;;;26.67;56.06
18784;BME280;9520;50.954;6.968;2022-09-14T01:00:19;100077.06;;;26.56;55.77
18784;BME280;9520;50.954;6.968;2022-09-14T01:00:41;100098.16;;;26.62;55.83
18784;BME280;9520;50.954;6.968;2022-09-14T01:01:03;100100.72;;;26.63;55.72
18784;BME280;9520;50.954;6.968;2022-09-14T01:01:25;100090.91;;;26.62;55.86
18784;BME280;9520;50.954;6.968;2022-09-14T01:01:49;100093.47;;;26.64;55.95
18784;BME280;9520;50.954;6.968;2022-09-14T01:02:11;100095.75;;;26.59;55.88
18784;BME280;9520;50.954;6.968;2022-09-14T01:02:36;100094.31;;;26.64;56.30
18784;BME280;9520;50.954;6.968;2022-09-14T01:02:58;100097.00;;;26.64;56.35
18784;BME280;9520;50.954;6.968;2022-09-14T01:03:22;100096.03;;;26.65;56.23
18784;BME280;9520;50.954;6.968;2022-09-14T01:03:43;100093.31;;;26.65;56.15
18784;BME280;9520;50.954;6.968;2022-09-14T01:04:05;100093.19;;;26.67;56.09
18784;BME280;9520;50.954;6.968;2022-09-14T01:04:27;100094.03;;;26.68;55.82
18784;BME280;9520;50.954;6.968;2022-09-14T01:04:49;100090.59;;;26.65;56.22
18784;BME280;9520;50.954;6.968;2022-09-14T01:05:12;100093.31;;;26.65;55.87
18784;BME280;9520;50.954;6.968;2022-09-14T01:05:44;100080.22;;;26.61;55.98
18784;BME280;9520;50.954;6.968;2022-09-14T01:06:16;100083.47;;;26.64;55.78
18784;BME280;9520;50.954;6.968;2022-09-14T01:06:45;100085.50;;;26.62;55.77
18784;BME280;9520;50.954;6.968;2022-09-14T01:07:21;100091.34;;;26.68;56.38
18784;BME280;9520;50.954;6.968;2022-09-14T01:08:39;100091.03;;;26.71;56.17
18784;BME280;9520;50.954;6.968;2022-09-14T01:09:14;100089.31;;;26.70;56.46
18784;BME280;9520;50.954;6.968;2022-09-14T01:09:42;100091.78;;;26.73;56.29
18784;BME280;9520;50.954;6.968;2022-09-14T01:10:16;100079.66;;;26.67;56.05
18784;BME280;9520;50.954;6.968;2022-09-14T01:10:52;100083.91;;;26.70;56.17
18784;BME280;9520;50.954;6.968;2022-09-14T01:11:35;100084.78;;;26.70;56.23
18784;BME280;9520;50.954;6.968;2022-09-14T01:12:08;100084.63;;;26.72;55.98
18784;BME280;9520;50.954;6.968;2022-09-14T01:12:43;100075.97;;;26.68;55.93
18784;BME280;9520;50.954;6.968;2022-09-14T01:13:20;100077.81;;;26.68;55.98
18784;BME280;9520;50.954;6.968;2022-09-14T01:13:54;100076.81;;;26.69;56.41
18784;BME280;9520;50.954;6.968;2022-09-14T01:14:26;100079.34;;;26.70;56.19
18784;BME280;9520;50.954;6.968;2022-09-14T01:14:57;100072.81;;;26.63;56.44
18784;BME280;9520;50.954;6.968;2022-09-14T01:15:25;100062.13;;;26.61;56.18
18784;BME280;9520;50.954;6.968;2022-09-14T01:16:02;100075.78;;;26.70;56.26
18784;BME280;9520;50.954;6.968;2022-09-14T01:16:32;100061.56;;;26.68;56.09
18784;BME280;9520;50.954;6.968;2022-09-14T01:16:59;100064.28;;;26.68;56.03
18784;BME280;9520;50.954;6.968;2022-09-14T01:17:30;100077.69;;;26.69;56.41
18784;BME280;9520;50.954;6.968;2022-09-14T01:17:59;100061.44;;;26.69;56.49
18784;BME280;9520;50.954;6.968;2022-09-14T01:18:28;100073.81;;;26.72;56.82
18784;BME280;9520;50.954;6.968;2022-09-14T01:18:56;100059.56;;;26.70;56.35
18784;BME280;9520;50.954;6.968;2022-09-14T01:19:24;100075.09;;;26.68;56.84
18784;BME280;9520;50.954;6.968;2022-09-14T01:20:05;100070.38;;;26.70;56.44
18784;BME280;9520;50.954;6.968;2022-09-14T01:20:34;100067.53;;;26.71;56.04
18784;BME280;9520;50.954;6.968;2022-09-14T01:21:09;100059.84;;;26.67;56.59
18784;BME280;9520;50.954;6.968;2022-09-14T01:21:33;100063.97;;;26.71;56.62
18784;BME280;9520;50.954;6.968;2022-09-14T01:21:57;100072.66;;;26.74;56.08
18784;BME280;9520;50.954;6.968;2022-09-14T01:22:34;100068.28;;;26.73;56.52
18784;BME280;9520;50.954;6.968;2022-09-14T01:23:07;100074.38;;;26.75;56.48
18784;BME280;9520;50.954;6.968;2022-09-14T01:23:36;100055.75;;;26.72;56.82
18784;BME280;9520;50.954;6.968;2022-09-14T01:24:05;100068.97;;;26.75;56.80
18784;BME280;9520;50.954;6.968;2022-09-14T01:24:40;100064.84;;;26.71;56.77
18784;BME280;9520;50.954;6.968;2022-09-14T01:25:10;100066.13;;;26.67;56.28
18784;BME280;9520;50.954;6.968;2022-09-14T01:27:25;100070.38;;;26.60;56.95
18784;BME280;9520;50.954;6.968;2022-09-14T01:27:49;100075.38;;;26.64;56.87
18784;BME280;9520;50.954;6.968;2022-09-14T01:28:15;100051.00;;;26.45;56.96
18784;BME280;9520;50.954;6.968;2022-09-14T01:28:47;100043.72;;;26.46;56.85
18784;BME280;9520;50.954;6.968;2022-09-14T01:29:14;100076.22;;;26.65;56.91
18784;BME280;9520;50.954;6.968;2022-09-14T01:29:40;100076.09;;;26.67;56.90
18784;BME280;9520;50.954;6.968;2022-09-14T01:30:08;100042.75;;;26.47;56.50
18784;BME280;9520;50.954;6.968;2022-09-14T01:30:32;100031.34;;;26.43;56.14
18784;BME280;9520;50.954;6.968;2022-09-14T01:30:56;100067.84;;;26.68;56.39
18784;BME280;9520;50.954;6.968;2022-09-14T01:31:25;100078.50;;;26.70;55.91
18784;BME280;9520;50.954;6.968;2022-09-14T01:31:53;100072.25;;;26.69;56.07
18784;BME280;9520;50.954;6.968;2022-09-14T01:32:20;100040.47;;;26.52;55.60
18784;BME280;9520;50.954;6.968;2022-09-14T01:32:47;100062.56;;;26.67;55.95
18784;BME280;9520;50.954;6.968;2022-09-14T01:33:15;100071.13;;;26.72;55.80
18784;BME280;9520;50.954;6.968;2022-09-14T01:33:40;100047.59;;;26.53;56.11
18784;BME280;9520;50.954;6.968;2022-09-14T01:34:08;100065.56;;;26.63;55.60
18784;BME280;9520;50.954;6.968;2022-09-14T01:34:36;100077.25;;;26.74;55.74
18784;BME280;9520;50.954;6.968;2022-09-14T01:35:07;100075.25;;;26.76;55.54
18784;BME280;9520;50.954;6.968;2022-09-14T01:35:39;100071.84;;;26.74;55.49
18784;BME280;9520;50.954;6.968;2022-09-14T01:36:06;100043.06;;;26.53;55.71
18784;BME280;9520;50.954;6.968;2022-09-14T01:36:30;100049.03;;;26.57;55.88
18784;BME280;9520;50.954;6.968;2022-09-14T01:36:58;100076.22;;;26.75;56.23
18784;BME280;9520;50.954;6.968;2022-09-14T01:37:26;100073.41;;;26.76;55.99
18784;BME280;9520;50.954;6.968;2022-09-14T01:37:50;100070.38;;;26.70;56.42
18784;BME280;9520;50.954;6.968;2022-09-14T01:38:18;100081.66;;;26.75;56.08
18784;BME280;9520;50.954;6.968;2022-09-14T01:38:44;100080.78;;;26.74;56.00
18784;BME280;9520;50.954;6.968;2022-09-14T01:39:09;100082.66;;;26.74;56.33
18784;BME280;9520;50.954;6.968;2022-09-14T01:39:33;100066.56;;;26.62;55.80
18784;BME280;9520;50.954;6.968;2022-09-14T01:39:58;100084.50;;;26.73;55.86
18784;BME280;9520;50.954;6.968;2022-09-14T01:40:26;100080.78;;;26.74;55.59
18784;BME280;9520;50.954;6.968;2022-09-14T01:40:50;100077.09;;;26.75;55.44
18784;BME280;9520;50.954;6.968;2022-09-14T01:41:16;100083.50;;;26.74;55.84
18784;BME280;9520;50.954;6.968;2022-09-14T01:41:41;100082.94;;;26.71;55.81
18784;BME280;9520;50.954;6.968;2022-09-14T01:42:03;100081.22;;;26.70;56.06
18784;BME280;9520;50.954;6.968;2022-09-14T01:42:29;100072.41;;;26.68;55.79
18784;BME280;9520;50.954;6.968;2022-09-14T01:42:56;100078.78;;;26.67;56.10
18784;BME280;9520;50.954;6.968;2022-09-14T01:43:21;100079.94;;;26.64;56.18
18784;BME280;9520;50.954;6.968;2022-09-14T01:43:47;100083.63;;;26.63;56.15
18784;BME280;9520;50.954;6.968;2022-09-14T01:44:14;100069.50;;;26.59;55.58
18784;BME280;9520;50.954;6.968;2022-09-14T01:44:41;100082.50;;;26.65;56.04
18784;BME280;9520;50.954;6.968;2022-09-14T01:45:08;100083.34;;;26.66;56.19
18784;BME280;9520;50.954;6.968;2022-09-14T01:45:32;100086.78;;;26.68;56.20
18784;BME280;9520;50.954;6.968;2022-09-14T01:45:57;100082.22;;;26.69;56.13
18784;BME280;9520;50.954;6.968;2022-09-14T01:46:24;100083.22;;;26.68;56.67
18784;BME280;9520;50.954;6.968;2022-09-14T01:46:50;100080.78;;;26.64;56.36
18784;BME280;9520;50.954;6.968;2022-09-14T01:47:15;100087.78;;;26.67;56.31
18784;BME280;9520;50.954;6.968;2022-09-14T01:47:42;100084.22;;;26.67;55.62
18784;BME280;9520;50.954;6.968;2022-09-14T01:48:11;100092.44;;;26.65;55.80
18784;BME280;9520;50.954;6.968;2022-09-14T01:48:36;100076.81;;;26.59;55.73
18784;BME280;9520;50.954;6.968;2022-09-14T01:49:03;100065.13;;;26.49;55.98
18784;BME280;9520;50.954;6.968;2022-09-14T01:49:32;100096.03;;;26.65;55.57
18784;BME280;9520;50.954;6.968;2022-09-14T01:49:58;100055.69;;;26.43;55.63
18784;BME280;9520;50.954;6.968;2022-09-14T01:50:25;100078.78;;;26.57;55.78
18784;BME280;9520;50.954;6.968;2022-09-14T01:50:51;100076.22;;;26.55;55.93
18784;BME280;9520;50.954;6.968;2022-09-14T01:51:21;100057.56;;;26.43;55.93
18784;BME280;9520;50.954;6.968;2022-09-14T01:51:45;100091.34;;;26.68;56.30
18784;BME280;9520;50.954;6.968;2022-09-14T01:52:13;100084.06;;;26.58;56.26
18784;BME280;9520;50.954;6.968;2022-09-14T01:52:41;100092.19;;;26.58;55.79
18784;BME280;9520;50.954;6.968;2022-09-14T01:53:07;100086.59;;;26.60;55.84
18784;BME280;9520;50.954;6.968;2022-09-14T01:53:34;100078.78;;;26.57;55.70
18784;BME280;9520;50.954;6.968;2022-09-14T01:54:01;100087.91;;;26.65;56.12
18784;BME280;9520;50.954;6.968;2022-09-14T01:54:32;100082.50;;;26.65;56.38
18784;BME280;9520;50.954;6.968;2022-09-14T01:54:59;100066.22;;;26.46;56.40
18784;BME280;9520;50.954;6.968;2022-09-14T01:55:25;100052.81;;;26.35;56.26
18784;BME280;9520;50.954;6.968;2022-09-14T01:55:53;100105.56;;;26.70;56.25
18784;BME280;9520;50.954;6.968;2022-09-14T01:56:19;100096.75;;;26.68;56.30
18784;BME280;9520;50.954;6.968;2022-09-14T01:56:48;100094.47;;;26.73;56.11
18784;BME280;9520;50.954;6.968;2022-09-14T01:57:14;100055.41;;;26.46;55.75
18784;BME280;9520;50.954;6.968;2022-09-14T01:57:43;100096.19;;;26.74;55.80
18784;BME280;9520;50.954;6.968;2022-09-14T01:58:10;100091.03;;;26.71;56.05
18784;BME280;9520;50.954;6.968;2022-09-14T01:58:35;100097.88;;;26.75;55.72
18784;BME280;9520;50.954;6.968;2022-09-14T01:59:06;100096.88;;;26.76;55.77
18784;BME280;9520;50.954;6.968;2022-09-14T01:59:34;100096.19;;;26.74;56.45
18784;BME280;9520;50.954;6.968;2022-09-14T02:00:00;100087.91;;;26.65;56.07
18784;BME280;9520;50.954;6.968;2022-09-14T02:00:26;100091.59;;;26.64;55.73
18784;BME280;9520;50.954;6.968;2022-09-14T02:00:49;100095.34;;;26.73;56.42
18784;BME280;9520;50.954;6.968;2022-09-14T02:01:16;100101.59;;;26.74;55.92
18784;BME280;9520;50.954;6.968;2022-09-14T02:01:46;100096.03;;;26.75;56.32
18784;BME280;9520;50.954;6.968;2022-09-14T02:02:15;100097.19;;;26.73;56.51
18784;BME280;9520;50.954;6.968;2022-09-14T02:02:43;100092.75;;;26.72;56.60
18784;BME280;9520;50.954;6.968;2022-09-14T02:03:11;100089.75;;;26.75;56.52
18784;BME280;9520;50.954;6.968;2022-09-14T02:03:37;100094.47;;;26.73;56.05
18784;BME280;9520;50.954;6.968;2022-09-14T02:04:03;100099.03;;;26.62;56.29
18784;BME280;9520;50.954;6.968;2022-09-14T02:04:34;100081.19;;;26.60;56.50
18784;BME280;9520;50.954;6.968;2022-09-14T02:05:01;100089.91;;;26.63;56.55
18784;BME280;9520;50.954;6.968;2022-09-14T02:05:27;100088.75;;;26.66;56.70
18784;BME280;9520;50.954;6.968;2022-09-14T02:05:56;100092.19;;;26.68;56.44
18784;BME280;9520;50.954;6.968;2022-09-14T02:06:24;100081.38;;;26.68;56.11
18784;BME280;9520;50.954;6.968;2022-09-14T02:06:50;100083.09;;;26.69;56.09
18784;BME280;9520;50.954;6.968;2022-09-14T02:07:11;100088.50;;;26.69;56.55
18784;BME280;9520;50.954;6.968;2022-09-14T02:07:36;100079.09;;;26.63;56.55
18784;BME280;9520;50.954;6.968;2022-09-14T02:07:58;100078.06;;;26.64;56.60
18784;BME280;9520;50.954;6.968;2022-09-14T02:08:21;100080.38;;;26.69;56.51
18784;BME280;9520;50.954;6.968;2022-09-14T02:08:43;100072.41;;;26.68;56.90
18784;BME280;9520;50.954;6.968;2022-09-14T02:09:06;100082.22;;;26.69;56.50
18784;BME280;9520;50.954;6.968;2022-09-14T02:09:29;100073.94;;;26.60;56.84
18784;BME280;9520;50.954;6.968;2022-09-14T02:09:53;100072.66;;;26.64;56.88
18784;BME280;9520;50.954;6.968;2022-09-14T02:10:16;100055.56;;;26.54;56.72
18784;BME280;9520;50.954;6.968;2022-09-14T02:10:37;100085.94;;;26.68;57.39
18784;BME280;9520;50.954;6.968;2022-09-14T02:11:00;100083.34;;;26.66;56.98
18784;BME280;9520;50.954;6.968;2022-09-14T02:11:24;100082.66;;;26.64;57.01
18784;BME280;9520;50.954;6.968;2022-09-14T02:11:46;100073.81;;;26.62;57.32
18784;BME280;9520;50.954;6.968;2022-09-14T02:12:07;100078.34;;;26.61;57.28
18784;BME280;9520;50.954;6.968;2022-09-14T02:12:30;100082.91;;;26.61;56.71
18784;BME280;9520;50.954;6.968;2022-09-14T02:12:53;100078.34;;;26.61;57.23
18784;BME280;9520;50.954;6.968;2022-09-14T02:13:17;100081.19;;;26.60;57.20
18784;BME280;9520;50.954;6.968;2022-09-14T02:13:38;100067.84;;;26.58;57.27
18784;BME280;9520;50.954;6.968;2022-09-14T02:14:00;100077.38;;;26.62;57.06
18784;BME280;9520;50.954;6.968;2022-09-14T02:14:22;100080.78;;;26.64;57.22
18784;BME280;9520;50.954;6.968;2022-09-14T02:14:45;100076.22;;;26.65;56.78
18784;BME280;9520;50.954;6.968;2022-09-14T02:15:10;100080.78;;;26.64;56.90
18784;BME280;9520;50.954;6.968;2022-09-14T02:15:33;100074.53;;;26.64;56.59
18784;BME280;9520;50.954;6.968;2022-09-14T02:15:56;100060.84;;;26.56;56.74
18784;BME280;9520;50.954;6.968;2022-09-14T02:16:19;100075.66;;;26.61;56.45
18784;BME280;9520;50.954;6.968;2022-09-14T02:16:42;100070.53;;;26.58;56.52
18784;BME280;9520;50.954;6.968;2022-09-14T02:17:07;100069.69;;;26.58;56.63
18784;BME280;9520;50.954;6.968;2022-09-14T02:17:30;100067.41;;;26.53;56.37